Time;durP1;ratioP1;P1;durP2;ratioP2;P2;SDS_P1;SDS_P2;PMS_P1;PMS_P2;Temp;Humidity;BMP_temperature;BMP_pressure;BME280_temperature;BME280_humidity;BME280_pressure;Samples;Min_cycle;Max_cycle;Signal;HPM_P1;HPM_P2
2021/09/29 00:00:47;;;;;;;2.67;0.75;;;13.80;99.90;;;;;;5057367;28;20037;-82
2021/09/29 00:03:12;;;;;;;1.20;0.60;;;13.80;99.90;;;;;;5057339;28;20037;-83
2021/09/29 00:05:41;;;;;;;1.17;0.73;;;13.80;99.90;;;;;;5072977;28;20037;-82
2021/09/29 00:08:08;;;;;;;1.25;0.60;;;13.80;99.90;;;;;;5057789;28;20029;-82
2021/09/29 00:10:33;;;;;;;1.13;0.40;;;13.70;99.90;;;;;;5056635;28;20025;-82
2021/09/29 00:12:59;;;;;;;1.67;0.68;;;13.70;99.90;;;;;;5073377;28;20098;-82
2021/09/29 00:15:25;;;;;;;1.52;0.80;;;13.60;99.90;;;;;;5073392;28;20032;-82
2021/09/29 00:17:50;;;;;;;1.35;0.65;;;13.60;99.90;;;;;;5057989;28;20036;-82
2021/09/29 00:20:16;;;;;;;1.80;0.80;;;13.60;99.90;;;;;;5056607;28;20385;-82
2021/09/29 00:22:43;;;;;;;1.00;0.60;;;13.50;99.90;;;;;;5057525;28;20029;-82
2021/09/29 00:25:11;;;;;;;2.08;1.23;;;13.50;99.90;;;;;;5057262;28;20087;-82
2021/09/29 00:27:37;;;;;;;1.77;0.77;;;13.50;99.90;;;;;;5057420;28;20043;-82
2021/09/29 00:30:06;;;;;;;1.77;0.85;;;13.60;99.90;;;;;;5057559;28;20029;-82
2021/09/29 00:32:33;;;;;;;1.55;0.60;;;13.50;99.90;;;;;;5056905;28;20461;-82
2021/09/29 00:34:59;;;;;;;2.35;1.02;;;13.50;99.90;;;;;;5069067;28;20056;-82
2021/09/29 00:37:25;;;;;;;1.80;0.82;;;13.50;99.90;;;;;;5069396;28;20029;-82
2021/09/29 00:39:51;;;;;;;1.90;0.85;;;13.50;99.90;;;;;;5037907;28;20043;-82
2021/09/29 00:42:16;;;;;;;0.93;0.60;;;13.50;99.90;;;;;;5056499;28;20163;-82
2021/09/29 00:44:42;;;;;;;1.65;1.00;;;13.50;99.90;;;;;;5049660;28;20033;-82
2021/09/29 00:47:08;;;;;;;1.10;0.60;;;13.50;99.90;;;;;;5056916;28;20351;-82
2021/09/29 00:49:34;;;;;;;1.83;0.60;;;13.50;99.90;;;;;;5057077;28;20099;-83
2021/09/29 00:52:01;;;;;;;1.50;0.70;;;13.50;99.90;;;;;;5070460;28;20068;-82
2021/09/29 00:54:29;;;;;;;1.73;0.70;;;13.50;99.90;;;;;;5071769;28;20025;-82
2021/09/29 00:56:55;;;;;;;2.22;0.77;;;13.50;99.90;;;;;;5055640;28;20055;-82
2021/09/29 00:59:22;;;;;;;1.90;0.80;;;13.50;99.90;;;;;;5055129;28;20520;-82
2021/09/29 01:01:48;;;;;;;2.13;0.73;;;13.50;99.90;;;;;;5054665;28;20035;-83
2021/09/29 01:04:14;;;;;;;1.55;0.88;;;13.40;99.90;;;;;;5048251;28;20044;-83
2021/09/29 01:06:43;;;;;;;2.17;0.82;;;13.40;99.90;;;;;;5056916;28;20040;-83
2021/09/29 01:09:20;;;;;;;1.52;0.77;;;13.40;99.90;;;;;;5056439;28;20024;-82
2021/09/29 01:12:06;;;;;;;1.20;0.77;;;13.30;99.90;;;;;;5055832;28;20021;-82
2021/09/29 01:14:42;;;;;;;2.35;1.08;;;13.30;99.90;;;;;;5060650;22;20088;-81
2021/09/29 01:17:10;;;;;;;1.73;0.82;;;13.30;99.90;;;;;;5038876;28;20018;-81
2021/09/29 01:20:02;;;;;;;0.88;0.50;;;13.30;99.90;;;;;;5024385;28;20018;-83
2021/09/29 01:22:50;;;;;;;2.30;0.95;;;13.20;99.90;;;;;;5025000;28;20021;-83
2021/09/29 01:25:48;;;;;;;1.60;0.77;;;13.20;99.90;;;;;;5037505;28;20025;-84
2021/09/29 01:28:18;;;;;;;1.50;0.60;;;13.20;99.90;;;;;;5037719;28;20469;-83
2021/09/29 01:30:44;;;;;;;1.77;0.75;;;13.20;99.90;;;;;;5015620;28;20029;-80
2021/09/29 01:33:11;;;;;;;1.00;0.70;;;13.10;99.90;;;;;;5036026;28;20068;-85
2021/09/29 01:35:37;;;;;;;2.03;0.90;;;13.10;99.90;;;;;;5037874;28;20022;-82
2021/09/29 01:38:04;;;;;;;1.17;0.60;;;13.10;99.90;;;;;;5037581;28;20402;-82
2021/09/29 01:40:30;;;;;;;1.67;0.70;;;13.00;99.90;;;;;;5036790;28;20030;-83
2021/09/29 01:42:57;;;;;;;1.23;0.52;;;13.00;99.90;;;;;;5037297;28;20022;-83
2021/09/29 01:45:23;;;;;;;0.85;0.50;;;13.00;99.90;;;;;;5036526;28;20617;-80
2021/09/29 01:47:49;;;;;;;1.42;0.70;;;13.00;99.90;;;;;;5037125;28;20490;-82
2021/09/29 01:50:19;;;;;;;0.90;0.57;;;13.00;99.90;;;;;;5034962;28;20033;-83
2021/09/29 01:52:46;;;;;;;1.77;0.60;;;12.90;99.90;;;;;;5019720;28;20075;-80
2021/09/29 01:55:18;;;;;;;1.73;0.95;;;12.90;99.90;;;;;;5037320;28;20026;-83
2021/09/29 01:57:47;;;;;;;1.25;0.50;;;12.90;99.90;;;;;;5034873;28;20029;-82
2021/09/29 02:00:15;;;;;;;2.60;0.95;;;12.90;99.90;;;;;;5036807;28;20060;-83
2021/09/29 02:02:42;;;;;;;1.80;0.60;;;12.90;99.90;;;;;;5035947;28;20025;-83
2021/09/29 02:05:09;;;;;;;1.95;0.60;;;12.90;99.90;;;;;;5024509;28;20026;-83
2021/09/29 02:07:35;;;;;;;1.35;0.60;;;13.00;99.90;;;;;;5023700;28;20025;-82
2021/09/29 02:10:01;;;;;;;1.75;0.80;;;12.90;99.90;;;;;;5036744;28;20033;-81
2021/09/29 02:12:26;;;;;;;1.63;0.80;;;12.90;99.90;;;;;;5019359;28;20021;-81
2021/09/29 02:14:52;;;;;;;1.33;0.73;;;13.00;99.90;;;;;;4978656;28;1152639;-83
2021/09/29 02:17:18;;;;;;;1.90;1.00;;;13.00;99.90;;;;;;5037220;28;20021;-82
2021/09/29 02:19:45;;;;;;;1.85;0.70;;;13.00;99.90;;;;;;5019998;28;20029;-83
2021/09/29 02:22:14;;;;;;;2.30;1.10;;;12.90;99.90;;;;;;5038216;28;20092;-82
2021/09/29 02:24:40;;;;;;;2.13;0.80;;;13.00;99.90;;;;;;5037490;28;20132;-81
2021/09/29 02:27:06;;;;;;;1.65;0.52;;;13.00;99.90;;;;;;5038816;28;20453;-83
2021/09/29 02:29:31;;;;;;;1.73;0.80;;;13.00;99.90;;;;;;5037156;28;20055;-83
2021/09/29 02:32:00;;;;;;;2.47;0.85;;;12.90;99.90;;;;;;5019536;28;20033;-83
2021/09/29 02:34:26;;;;;;;2.10;0.90;;;12.80;99.90;;;;;;5020173;28;20112;-83
2021/09/29 02:36:53;;;;;;;1.52;0.63;;;12.80;99.90;;;;;;5038494;28;20067;-83
2021/09/29 02:39:18;;;;;;;1.95;1.02;;;12.70;99.90;;;;;;5016750;28;20026;-81
2021/09/29 02:41:44;;;;;;;2.05;0.90;;;12.70;99.90;;;;;;5017915;28;20104;-83
2021/09/29 02:44:11;;;;;;;1.83;0.85;;;12.70;99.90;;;;;;5024600;28;20085;-82
2021/09/29 02:46:39;;;;;;;1.65;0.88;;;12.70;99.90;;;;;;5036912;28;20030;-82
2021/09/29 02:49:06;;;;;;;1.98;1.10;;;12.70;99.90;;;;;;5035602;28;20564;-83
2021/09/29 02:51:32;;;;;;;1.63;0.90;;;12.70;99.90;;;;;;5038029;28;20026;-83
2021/09/29 02:53:57;;;;;;;2.40;1.48;;;12.80;99.90;;;;;;5037865;28;20120;-83
2021/09/29 02:56:24;;;;;;;2.20;0.80;;;12.80;99.90;;;;;;5038017;28;20105;-83
2021/09/29 02:58:49;;;;;;;1.73;0.73;;;12.80;99.90;;;;;;5037543;28;20041;-82
2021/09/29 03:01:15;;;;;;;2.35;0.68;;;12.80;99.90;;;;;;5037404;28;20040;-83
2021/09/29 03:03:41;;;;;;;1.30;0.65;;;12.70;99.90;;;;;;5034585;28;20043;-81
2021/09/29 03:06:06;;;;;;;2.05;0.95;;;12.70;99.90;;;;;;5014790;28;20120;-83
2021/09/29 03:08:32;;;;;;;1.55;0.52;;;12.70;99.90;;;;;;5038151;28;20037;-82
2021/09/29 03:10:58;;;;;;;1.88;0.85;;;12.60;99.90;;;;;;5036947;28;20032;-83
2021/09/29 03:13:23;;;;;;;2.10;1.02;;;12.60;99.90;;;;;;5016901;28;20442;-82
2021/09/29 03:15:49;;;;;;;1.30;0.63;;;12.50;99.90;;;;;;5017032;28;20501;-81
2021/09/29 03:18:17;;;;;;;2.65;1.15;;;12.50;99.90;;;;;;5015133;28;20022;-82
2021/09/29 03:20:43;;;;;;;1.75;0.90;;;12.50;99.90;;;;;;5021560;28;20022;-81
2021/09/29 03:23:09;;;;;;;1.40;0.70;;;12.50;99.90;;;;;;5033470;28;20102;-82
2021/09/29 03:25:35;;;;;;;1.85;0.73;;;12.50;99.90;;;;;;5036077;28;20393;-83
2021/09/29 03:28:00;;;;;;;2.28;0.90;;;12.50;99.90;;;;;;5034490;28;20063;-83
2021/09/29 03:30:26;;;;;;;2.00;0.90;;;12.50;99.90;;;;;;5027425;28;20041;-82
2021/09/29 03:32:52;;;;;;;2.05;0.70;;;12.50;99.90;;;;;;5017342;28;20125;-83
2021/09/29 03:35:18;;;;;;;1.88;1.02;;;12.50;99.90;;;;;;5029457;28;20038;-83
2021/09/29 03:37:43;;;;;;;2.78;1.17;;;12.40;99.90;;;;;;5017695;28;20041;-83
2021/09/29 03:40:10;;;;;;;2.03;1.10;;;12.40;99.90;;;;;;5030306;28;20390;-83
2021/09/29 03:42:36;;;;;;;0.98;0.65;;;12.40;99.90;;;;;;5015324;28;20022;-82
2021/09/29 03:45:03;;;;;;;1.70;0.77;;;12.40;99.90;;;;;;5030516;28;20128;-82
2021/09/29 03:47:28;;;;;;;1.60;0.85;;;12.30;99.90;;;;;;5016933;28;20048;-83
2021/09/29 03:49:54;;;;;;;1.48;0.60;;;12.20;99.90;;;;;;5018063;28;20017;-82
2021/09/29 03:52:20;;;;;;;1.50;0.82;;;12.30;99.90;;;;;;5017909;28;20060;-83
2021/09/29 03:54:45;;;;;;;2.08;0.85;;;12.30;99.90;;;;;;5033972;28;20402;-80
2021/09/29 03:57:11;;;;;;;1.48;0.65;;;12.30;99.90;;;;;;5034717;28;20029;-83
2021/09/29 03:59:36;;;;;;;2.33;0.82;;;12.20;99.90;;;;;;5033640;28;20139;-82
2021/09/29 04:02:02;;;;;;;1.83;1.00;;;12.20;99.90;;;;;;5036940;28;20025;-83
2021/09/29 04:04:28;;;;;;;1.40;0.65;;;12.20;99.90;;;;;;5029379;28;20033;-82
2021/09/29 04:06:53;;;;;;;1.98;0.75;;;12.20;99.90;;;;;;5039629;28;20441;-83
2021/09/29 04:09:21;;;;;;;2.30;0.98;;;12.20;99.90;;;;;;5022444;28;20029;-82
2021/09/29 04:11:47;;;;;;;1.02;0.50;;;12.20;99.90;;;;;;5021483;28;20029;-82
2021/09/29 04:14:15;;;;;;;1.98;1.00;;;12.10;99.90;;;;;;5036687;28;20067;-82
2021/09/29 04:16:40;;;;;;;1.17;0.65;;;12.10;99.90;;;;;;5036838;28;20060;-83
2021/09/29 04:19:06;;;;;;;1.77;0.73;;;12.10;99.90;;;;;;5038117;28;20430;-83
2021/09/29 04:21:32;;;;;;;1.38;0.57;;;12.10;99.90;;;;;;5020192;28;20103;-83
2021/09/29 04:23:57;;;;;;;1.20;0.68;;;12.10;99.90;;;;;;5012468;28;20065;-83
2021/09/29 04:26:23;;;;;;;1.45;0.73;;;12.10;99.90;;;;;;5036831;28;20437;-83
2021/09/29 04:28:49;;;;;;;1.40;0.60;;;12.10;99.90;;;;;;5037211;28;20662;-83
2021/09/29 04:31:15;;;;;;;1.65;0.75;;;12.10;99.90;;;;;;5017554;28;20056;-83
2021/09/29 04:33:41;;;;;;;1.48;0.77;;;12.10;99.90;;;;;;5037056;28;20375;-83
2021/09/29 04:36:08;;;;;;;1.55;0.63;;;12.10;99.90;;;;;;5036824;28;20037;-83
2021/09/29 04:38:33;;;;;;;2.08;0.77;;;12.10;99.90;;;;;;5034696;28;20021;-81
2021/09/29 04:40:59;;;;;;;1.45;0.55;;;12.10;99.90;;;;;;5017820;28;20395;-82
2021/09/29 04:43:25;;;;;;;1.63;0.60;;;12.10;99.90;;;;;;5036081;28;20306;-83
2021/09/29 04:45:50;;;;;;;2.10;0.90;;;12.20;99.90;;;;;;5034758;28;20394;-83
2021/09/29 04:48:16;;;;;;;1.67;0.63;;;12.20;99.90;;;;;;5036308;28;20115;-83
2021/09/29 04:50:42;;;;;;;1.73;0.60;;;12.20;99.90;;;;;;5035269;28;20097;-82
2021/09/29 04:53:08;;;;;;;2.05;0.85;;;12.20;99.90;;;;;;5035302;28;20030;-81
2021/09/29 04:55:34;;;;;;;1.02;0.40;;;12.20;99.90;;;;;;5033376;28;20035;-83
2021/09/29 04:58:02;;;;;;;1.05;0.50;;;12.20;99.90;;;;;;5035260;28;20453;-83
2021/09/29 05:00:31;;;;;;;1.27;0.60;;;12.20;99.90;;;;;;5016854;28;20037;-82
2021/09/29 05:02:57;;;;;;;1.73;0.77;;;12.20;99.90;;;;;;5017334;28;20490;-83
2021/09/29 05:05:23;;;;;;;0.93;0.50;;;12.20;99.90;;;;;;5032036;28;20032;-82
2021/09/29 05:07:56;;;;;;;1.30;0.60;;;12.20;99.90;;;;;;5034321;28;20132;-83
2021/09/29 05:10:48;;;;;;;0.93;0.30;;;12.20;99.90;;;;;;5033177;28;20093;-83
2021/09/29 05:13:22;;;;;;;0.82;0.25;;;12.20;99.90;;;;;;5034286;28;20508;-83
2021/09/29 05:15:48;;;;;;;1.45;0.77;;;12.10;99.90;;;;;;5032923;28;20037;-82
2021/09/29 05:18:15;;;;;;;1.13;0.60;;;12.10;99.90;;;;;;5018679;28;20036;-83
2021/09/29 05:20:40;;;;;;;1.10;0.57;;;12.10;99.90;;;;;;5034611;28;20021;-83
2021/09/29 05:23:06;;;;;;;1.05;0.40;;;12.10;99.90;;;;;;5017259;28;20450;-83
2021/09/29 05:25:32;;;;;;;1.23;0.52;;;12.10;99.90;;;;;;5017463;28;20033;-83
2021/09/29 05:27:58;;;;;;;1.15;0.50;;;12.00;99.90;;;;;;5016955;28;20466;-83
2021/09/29 05:30:24;;;;;;;0.98;0.45;;;12.00;99.90;;;;;;5034468;28;20032;-83
2021/09/29 05:32:49;;;;;;;0.95;0.40;;;12.00;99.90;;;;;;5035005;28;20033;-83
2021/09/29 05:35:15;;;;;;;2.53;0.52;;;12.00;99.90;;;;;;5036214;28;20068;-82
2021/09/29 05:37:41;;;;;;;0.95;0.40;;;12.00;99.90;;;;;;5034329;28;20091;-83
2021/09/29 05:40:07;;;;;;;1.52;0.70;;;11.90;99.90;;;;;;5034741;28;20105;-82
2021/09/29 05:42:32;;;;;;;1.05;0.50;;;11.90;99.90;;;;;;5035103;28;20021;-83
2021/09/29 05:44:58;;;;;;;1.10;0.60;;;11.90;99.90;;;;;;5034322;28;20053;-83
2021/09/29 05:47:24;;;;;;;0.63;0.30;;;11.90;99.90;;;;;;5034223;28;20025;-82
2021/09/29 05:49:49;;;;;;;1.45;0.65;;;11.90;99.90;;;;;;5033393;28;20049;-81
2021/09/29 05:52:15;;;;;;;1.30;0.80;;;12.00;99.90;;;;;;5034551;28;20029;-82
2021/09/29 05:54:40;;;;;;;1.33;0.50;;;12.00;99.90;;;;;;5034581;28;20034;-86
2021/09/29 05:57:06;;;;;;;1.05;0.40;;;11.90;99.90;;;;;;5034573;28;20029;-86
2021/09/29 05:59:32;;;;;;;0.98;0.32;;;12.20;99.90;;;;;;5030915;28;20040;-85
2021/09/29 06:01:58;;;;;;;1.30;0.82;;;12.00;99.90;;;;;;5024112;28;20109;-86
2021/09/29 06:04:24;;;;;;;1.25;0.70;;;12.00;99.90;;;;;;5014802;28;20045;-85
2021/09/29 06:06:49;;;;;;;1.48;0.73;;;12.00;99.90;;;;;;5015395;28;20059;-86
2021/09/29 06:09:15;;;;;;;3.50;1.15;;;12.00;99.90;;;;;;5014305;28;20025;-86
2021/09/29 06:11:41;;;;;;;1.50;0.60;;;12.10;99.90;;;;;;5026902;28;20026;-85
2021/09/29 06:14:07;;;;;;;1.40;0.50;;;12.10;99.90;;;;;;5031867;28;20037;-85
2021/09/29 06:16:35;;;;;;;1.63;0.60;;;12.10;99.90;;;;;;5033525;28;20148;-86
2021/09/29 06:19:01;;;;;;;0.77;0.35;;;12.20;99.90;;;;;;5032754;28;20470;-85
2021/09/29 06:21:26;;;;;;;1.13;0.52;;;12.20;99.90;;;;;;5033361;28;20036;-85
2021/09/29 06:23:52;;;;;;;0.85;0.47;;;12.30;99.90;;;;;;5033491;28;20037;-86
2021/09/29 06:26:18;;;;;;;1.25;0.60;;;12.50;99.90;;;;;;5031097;28;20041;-86
2021/09/29 06:28:43;;;;;;;1.45;0.68;;;12.50;99.90;;;;;;5032801;28;20041;-85
2021/09/29 06:31:09;;;;;;;1.13;0.60;;;12.60;99.90;;;;;;5031434;28;20056;-85
2021/09/29 06:33:35;;;;;;;2.42;1.42;;;12.30;99.90;;;;;;5032061;28;20026;-84
2021/09/29 06:36:02;;;;;;;0.70;0.40;;;12.70;99.90;;;;;;5031459;28;20033;-84
2021/09/29 06:38:28;;;;;;;1.10;0.40;;;12.40;99.90;;;;;;5034825;28;20025;-85
2021/09/29 06:40:54;;;;;;;0.85;0.45;;;12.80;99.90;;;;;;5034367;28;20091;-85
2021/09/29 06:43:20;;;;;;;1.10;0.50;;;12.90;99.90;;;;;;5024796;28;20033;-85
2021/09/29 06:45:45;;;;;;;1.17;0.50;;;13.00;99.90;;;;;;5016468;28;20398;-86
2021/09/29 06:48:11;;;;;;;1.70;0.82;;;12.90;99.90;;;;;;5032985;28;20029;-86
2021/09/29 06:50:37;;;;;;;1.38;0.73;;;13.00;99.90;;;;;;5030864;28;20076;-86
2021/09/29 06:53:04;;;;;;;1.13;0.30;;;13.00;99.90;;;;;;5033297;28;20433;-85
2021/09/29 06:55:30;;;;;;;1.00;0.38;;;12.90;99.90;;;;;;5035212;28;20112;-86
2021/09/29 06:57:56;;;;;;;1.85;0.38;;;13.10;99.90;;;;;;5038144;28;20057;-85
2021/09/29 07:00:23;;;;;;;1.27;0.77;;;13.20;99.90;;;;;;5014459;28;20093;-86
2021/09/29 07:02:49;;;;;;;1.30;0.60;;;13.30;99.90;;;;;;5024158;28;20528;-86
2021/09/29 07:05:17;;;;;;;3.47;0.90;;;13.00;99.90;;;;;;5033038;28;20034;-85
2021/09/29 07:07:43;;;;;;;0.60;0.30;;;13.30;99.90;;;;;;5031876;28;20029;-86
2021/09/29 07:10:10;;;;;;;0.90;0.40;;;13.30;99.90;;;;;;5029414;28;20555;-86
2021/09/29 07:12:38;;;;;;;0.55;0.40;;;13.30;99.90;;;;;;5030713;28;20017;-86
2021/09/29 07:15:05;;;;;;;1.23;0.40;;;13.40;99.90;;;;;;5031622;28;20081;-85
2021/09/29 07:17:31;;;;;;;1.33;0.30;;;13.40;99.90;;;;;;5033097;28;20037;-85
2021/09/29 07:19:57;;;;;;;1.10;0.68;;;13.40;99.90;;;;;;5030045;28;20140;-86
2021/09/29 07:22:24;;;;;;;0.85;0.38;;;13.50;99.90;;;;;;5032173;28;20064;-86
2021/09/29 07:24:51;;;;;;;0.65;0.20;;;13.60;99.90;;;;;;5030680;28;20029;-86
2021/09/29 07:27:17;;;;;;;1.00;0.35;;;13.60;99.90;;;;;;5041868;28;20029;-85
2021/09/29 07:29:42;;;;;;;1.15;0.68;;;13.60;99.90;;;;;;5028778;28;20056;-85
2021/09/29 07:32:08;;;;;;;0.73;0.40;;;13.70;99.90;;;;;;5012232;28;20034;-85
2021/09/29 07:34:34;;;;;;;0.73;0.20;;;13.80;99.90;;;;;;5012512;28;20040;-85
2021/09/29 07:39:27;;;;;;;0.73;0.40;;;14.00;99.90;;;;;;5095560;23;20053;-82
2021/09/29 07:41:53;;;;;;;0.40;0.20;;;14.10;99.90;;;;;;5063900;28;20400;-81
2021/09/29 07:44:18;;;;;;;0.40;0.20;;;14.00;99.90;;;;;;5068331;28;20489;-80
2021/09/29 07:46:46;;;;;;;2.17;0.17;;;13.90;99.90;;;;;;5065600;28;20032;-82
2021/09/29 07:49:12;;;;;;;0.30;0.10;;;13.80;99.90;;;;;;5058954;28;20036;-83
2021/09/29 07:51:38;;;;;;;0.50;0.20;;;13.80;99.90;;;;;;5059262;28;20033;-82
2021/09/29 07:54:04;;;;;;;0.93;0.28;;;13.90;99.90;;;;;;5060967;28;20034;-82
2021/09/29 07:56:30;;;;;;;0.57;0.30;;;14.10;99.90;;;;;;5063144;28;20029;-82
2021/09/29 07:58:55;;;;;;;0.80;0.30;;;14.30;99.90;;;;;;5059646;28;20370;-81
2021/09/29 08:01:22;;;;;;;0.10;0.10;;;14.40;99.90;;;;;;5059368;28;20051;-81
2021/09/29 08:03:48;;;;;;;0.95;0.30;;;14.50;99.90;;;;;;5080641;28;20054;-83
2021/09/29 08:06:13;;;;;;;0.88;0.20;;;14.70;99.90;;;;;;5072214;28;20482;-82
2021/09/29 08:08:39;;;;;;;0.52;0.38;;;14.80;99.90;;;;;;5040415;28;20021;-82
2021/09/29 08:11:05;;;;;;;0.38;0.20;;;14.90;99.90;;;;;;5054723;28;20044;-82
2021/09/29 08:13:31;;;;;;;0.10;0.03;;;15.00;99.90;;;;;;5056264;28;20041;-82
2021/09/29 08:15:58;;;;;;;9.30;0.95;;;15.00;99.90;;;;;;5050972;28;20621;-83
2021/09/29 08:18:24;;;;;;;0.43;0.10;;;15.00;99.90;;;;;;5040683;28;20627;-83
2021/09/29 08:20:52;;;;;;;0.30;0.10;;;15.10;99.90;;;;;;5043266;28;20045;-81
2021/09/29 08:23:25;;;;;;;3.50;0.70;;;15.20;99.90;;;;;;5047754;28;20056;-81
2021/09/29 08:32:16;;;;;;;1.27;0.20;;;15.60;99.90;;;;;;5008827;28;20035;-84
2021/09/29 08:42:03;;;;;;;0.57;0.30;;;15.80;99.90;;;;;;5045930;28;20127;-80
2021/09/29 08:47:31;;;;;;;0.10;0.10;;;15.80;99.90;;;;;;5059787;28;20050;-81
2021/09/29 09:16:45;;;;;;;0.20;0.10;;;16.40;99.90;;;;;;5081233;28;20598;-80
2021/09/29 09:19:13;;;;;;;0.20;0.00;;;16.50;99.90;;;;;;5058105;28;20025;-82
2021/09/29 09:21:59;;;;;;;0.32;0.28;;;16.70;99.90;;;;;;5039740;28;20367;-83
2021/09/29 09:24:30;;;;;;;0.10;0.00;;;16.90;99.90;;;;;;5039194;28;20022;-80
2021/09/29 09:27:09;;;;;;;0.00;0.00;;;16.90;99.90;;;;;;5040855;28;20030;-81
2021/09/29 09:29:49;;;;;;;0.10;0.08;;;16.90;99.90;;;;;;5065700;28;20035;-81
2021/09/29 09:32:18;;;;;;;0.15;0.10;;;16.90;99.90;;;;;;5096092;28;20138;-80
2021/09/29 09:34:44;;;;;;;0.20;0.10;;;16.80;99.90;;;;;;5085350;28;20021;-80
2021/09/29 09:37:15;;;;;;;0.22;0.10;;;17.00;99.90;;;;;;5067128;28;20033;-80
2021/09/29 09:39:42;;;;;;;0.00;0.00;;;17.10;99.90;;;;;;5042652;28;20028;-82
2021/09/29 09:42:09;;;;;;;0.32;0.10;;;17.40;99.90;;;;;;5043704;28;20030;-80
2021/09/29 09:44:37;;;;;;;0.43;0.10;;;17.30;99.90;;;;;;5045232;28;20388;-82
2021/09/29 09:47:09;;;;;;;0.73;0.20;;;17.40;99.90;;;;;;5044199;28;20037;-81
2021/09/29 09:49:46;;;;;;;12.10;0.30;;;17.40;99.90;;;;;;5043966;28;20104;-80
2021/09/29 09:52:12;;;;;;;1.17;0.10;;;17.30;99.90;;;;;;5044403;28;20030;-81
2021/09/29 09:54:40;;;;;;;0.00;0.00;;;17.30;99.90;;;;;;5059468;28;20052;-79
2021/09/29 09:57:23;;;;;;;0.10;0.00;;;17.30;99.90;;;;;;5063868;28;20146;-81
2021/09/29 09:59:53;;;;;;;0.80;0.10;;;17.20;99.90;;;;;;5063389;28;20021;-81
2021/09/29 10:02:20;;;;;;;0.10;0.00;;;17.00;99.90;;;;;;5063329;28;20146;-81
2021/09/29 10:04:46;;;;;;;0.13;0.08;;;17.00;99.90;;;;;;5076422;28;20444;-80
2021/09/29 10:07:13;;;;;;;0.00;0.00;;;17.00;99.90;;;;;;5082656;28;20033;-80
2021/09/29 10:28:35;;;;;;;0.00;0.00;;;17.70;99.90;;;;;;5040577;28;20044;-81
2021/09/29 10:31:13;;;;;;;0.00;0.00;;;17.60;99.90;;;;;;5081389;28;20028;-80
2021/09/29 10:33:45;;;;;;;0.10;0.00;;;17.50;99.90;;;;;;5082578;28;20024;-79
2021/09/29 10:36:43;;;;;;;0.00;0.00;;;17.60;99.90;;;;;;5071109;28;20037;-81
2021/09/29 10:42:00;;;;;;;0.00;0.00;;;17.80;99.90;;;;;;5084084;28;20080;-81
2021/09/29 10:50:25;;;;;;;0.00;0.00;;;17.70;99.90;;;;;;5063833;28;20060;-80
2021/09/29 11:30:16;;;;;;;0.00;0.00;;;18.30;99.90;;;;;;5066346;28;20055;-81
2021/09/29 11:32:38;;;;;;;0.00;0.00;;;18.50;99.90;;;;;;5059521;28;20609;-82
2021/09/29 11:35:21;;;;;;;0.00;0.00;;;18.60;99.90;;;;;;5066312;28;20423;-83
2021/09/29 11:38:15;;;;;;;0.25;0.00;;;18.70;99.90;;;;;;5059202;28;20021;-82
2021/09/29 12:08:34;;;;;;;0.20;0.00;;;18.80;99.90;;;;;;5052580;28;20082;-80
2021/09/29 12:11:09;;;;;;;0.60;0.28;;;18.90;99.70;;;;;;5051326;28;20028;-80
2021/09/29 12:13:51;;;;;;;0.15;0.08;;;19.00;99.50;;;;;;5053114;28;20016;-81
2021/09/29 12:16:31;;;;;;;0.00;0.00;;;19.10;99.60;;;;;;5052481;28;20017;-80
2021/09/29 12:19:01;;;;;;;0.98;0.45;;;19.20;99.30;;;;;;5051954;28;20084;-81
2021/09/29 12:21:38;;;;;;;0.05;0.00;;;18.90;98.80;;;;;;5071053;28;20183;-80
2021/09/29 12:24:07;;;;;;;0.10;0.00;;;19.10;98.50;;;;;;5053259;28;20059;-80
2021/09/29 12:26:48;;;;;;;0.25;0.10;;;19.20;98.50;;;;;;5050012;28;20382;-80
2021/09/29 12:29:18;;;;;;;0.00;0.00;;;19.70;98.50;;;;;;5054011;28;20055;-81
2021/09/29 12:31:50;;;;;;;1.65;0.03;;;20.00;98.50;;;;;;5059231;28;20112;-81
2021/09/29 12:34:33;;;;;;;0.00;0.00;;;20.30;98.30;;;;;;5057052;28;20349;-82
2021/09/29 12:37:09;;;;;;;0.00;0.00;;;20.40;97.30;;;;;;5059718;28;20073;-82
2021/09/29 12:39:37;;;;;;;0.00;0.00;;;20.40;96.80;;;;;;5051542;28;20029;-82
2021/09/29 12:42:04;;;;;;;0.35;0.00;;;20.60;96.80;;;;;;5057462;28;20030;-82
2021/09/29 12:44:30;;;;;;;0.00;0.00;;;20.70;96.80;;;;;;5059227;28;20169;-82
2021/09/29 12:47:12;;;;;;;0.00;0.00;;;20.50;96.20;;;;;;5056678;28;20028;-82
2021/09/29 12:49:38;;;;;;;0.35;0.00;;;20.60;96.50;;;;;;5053796;28;20025;-81
2021/09/29 12:52:10;;;;;;;0.00;0.00;;;20.20;96.20;;;;;;5055733;28;20052;-81
2021/09/29 12:54:45;;;;;;;0.00;0.00;;;19.90;96.60;;;;;;5054742;28;20500;-81
2021/09/29 12:57:11;;;;;;;0.00;0.00;;;19.80;97.20;;;;;;5053609;28;20048;-82
2021/09/29 12:59:37;;;;;;;1.35;0.20;;;19.80;97.20;;;;;;5054305;28;20485;-82
2021/09/29 13:02:03;;;;;;;0.00;0.00;;;19.80;97.50;;;;;;5056010;28;20052;-82
2021/09/29 13:04:30;;;;;;;0.40;0.13;;;19.50;97.50;;;;;;5055784;28;20119;-81
2021/09/29 13:07:03;;;;;;;0.13;0.10;;;19.40;97.60;;;;;;5056787;28;20405;-82
2021/09/29 13:09:29;;;;;;;0.20;0.10;;;19.40;97.70;;;;;;5056001;28;20045;-81
2021/09/29 13:11:54;;;;;;;0.05;0.00;;;19.40;98.20;;;;;;5056605;28;20025;-82
2021/09/29 13:14:20;;;;;;;0.25;0.10;;;19.50;97.70;;;;;;5049485;28;20417;-81
2021/09/29 13:16:46;;;;;;;0.20;0.00;;;19.80;97.60;;;;;;5052977;28;20477;-80
2021/09/29 13:21:49;;;;;;;0.00;0.00;;;20.50;96.90;;;;;;5054140;28;20025;-80
2021/09/29 13:27:22;;;;;;;0.10;0.00;;;20.30;96.60;;;;;;5053669;28;20033;-81
2021/09/29 13:38:02;;;;;;;0.20;0.00;;;18.80;99.90;;;;;;5000012;28;20058;-80
2021/09/29 13:40:28;;;;;;;0.00;0.00;;;18.40;99.90;;;;;;5053555;28;20485;-81
2021/09/29 13:42:53;;;;;;;0.70;0.22;;;18.00;99.90;;;;;;5055755;28;20036;-81
2021/09/29 13:45:19;;;;;;;0.40;0.10;;;17.70;99.90;;;;;;5065980;28;20046;-80
2021/09/29 13:47:44;;;;;;;0.00;0.00;;;17.50;99.90;;;;;;5064737;28;20535;-80
2021/09/29 13:50:13;;;;;;;0.15;0.00;;;17.20;99.90;;;;;;5041243;28;20112;-80
2021/09/29 13:52:38;;;;;;;0.00;0.00;;;17.00;99.90;;;;;;5053102;28;20113;-81
2021/09/29 13:55:08;;;;;;;0.52;0.28;;;16.80;99.90;;;;;;5054578;28;20454;-81
2021/09/29 13:57:50;;;;;;;0.47;0.20;;;16.60;99.90;;;;;;5042137;28;20022;-81
2021/09/29 14:30:08;;;;;;;0.00;0.00;;;16.00;99.90;;;;;;5055484;28;20028;-82
2021/09/29 14:32:43;;;;;;;0.00;0.00;;;15.90;99.90;;;;;;5054993;28;20035;-81
2021/09/29 14:35:10;;;;;;;0.05;0.00;;;15.80;99.90;;;;;;5053511;28;20021;-82
2021/09/29 14:37:36;;;;;;;0.00;0.00;;;15.70;99.90;;;;;;5052646;28;21096;-82
2021/09/29 14:40:02;;;;;;;0.00;0.00;;;15.50;99.90;;;;;;5053126;28;20020;-79
2021/09/29 14:42:28;;;;;;;0.10;0.10;;;15.10;99.90;;;;;;5051375;28;20523;-79
2021/09/29 14:44:54;;;;;;;0.00;0.00;;;14.90;99.90;;;;;;5050361;28;20025;-79
2021/09/29 14:47:19;;;;;;;0.55;0.10;;;14.50;99.90;;;;;;5051467;28;20390;-80
2021/09/29 14:49:45;;;;;;;0.10;0.00;;;14.30;99.90;;;;;;5053714;28;20021;-81
2021/09/29 14:52:13;;;;;;;0.00;0.00;;;14.20;99.90;;;;;;5054068;28;20029;-81
2021/09/29 14:54:39;;;;;;;0.00;0.00;;;14.20;99.90;;;;;;5052552;28;20115;-79
2021/09/29 14:57:10;;;;;;;0.22;0.20;;;14.10;99.90;;;;;;5050874;28;20122;-79
2021/09/29 14:59:40;;;;;;;0.00;0.00;;;14.00;99.90;;;;;;5052616;28;20025;-81
2021/09/29 15:02:06;;;;;;;0.10;0.00;;;13.90;99.90;;;;;;5067417;28;20025;-81
2021/09/29 15:04:33;;;;;;;0.00;0.00;;;13.80;99.90;;;;;;5055248;28;20138;-81
2021/09/29 15:06:59;;;;;;;0.20;0.10;;;13.80;99.90;;;;;;5055237;28;20040;-80
2021/09/29 15:09:24;;;;;;;0.00;0.00;;;13.80;99.90;;;;;;5054738;28;20025;-80
2021/09/29 15:11:50;;;;;;;0.00;0.00;;;13.80;99.90;;;;;;5056493;28;20036;-80
2021/09/29 15:14:24;;;;;;;0.15;0.00;;;13.70;99.90;;;;;;5056192;28;20393;-81
2021/09/29 15:16:56;;;;;;;0.00;0.00;;;13.60;99.90;;;;;;5054270;28;20025;-80
2021/09/29 15:27:34;;;;;;;0.00;0.00;;;13.40;99.90;;;;;;5053120;28;20075;-80
2021/09/29 15:30:08;;;;;;;0.00;0.00;;;13.40;99.90;;;;;;5051544;28;20021;-78
2021/09/29 15:54:15;;;;;;;0.00;0.00;;;13.60;99.90;;;;;;5062483;28;20017;-79
2021/09/29 16:02:10;;;;;;;0.22;0.00;;;13.70;99.90;;;;;;5068653;28;20029;-80
2021/09/29 16:04:47;;;;;;;0.08;0.00;;;13.80;99.90;;;;;;5063798;28;20017;-80
2021/09/29 16:15:21;;;;;;;0.15;0.08;;;13.90;99.90;;;;;;5036704;28;20025;-82
2021/09/29 16:31:28;;;;;;;0.00;0.00;;;13.40;99.90;;;;;;5051007;28;20039;-80
2021/09/29 16:34:02;;;;;;;0.00;0.00;;;13.40;99.90;;;;;;5048703;28;20124;-81
2021/09/29 16:36:28;;;;;;;0.00;0.00;;;13.40;99.90;;;;;;5060758;28;20113;-81
2021/09/29 16:38:53;;;;;;;0.13;0.00;;;13.30;99.90;;;;;;5062783;28;20382;-81
2021/09/29 16:41:20;;;;;;;0.00;0.00;;;13.20;99.90;;;;;;5051522;28;20029;-81
2021/09/29 16:43:47;;;;;;;0.00;0.00;;;13.20;99.90;;;;;;5058458;28;20025;-81
2021/09/29 16:46:16;;;;;;;0.00;0.00;;;13.20;99.90;;;;;;5068571;28;20079;-81
2021/09/29 16:48:42;;;;;;;0.10;0.00;;;13.20;99.90;;;;;;5067141;28;20072;-81